sensor_id;sensor_type;location;lat;lon;timestamp;P1;durP1;ratioP1;P2;durP2;ratioP2
13327;SDS011;6733;51.044;3.746;2023-02-07T00:01:12;26.50;;;14.43;;
13327;SDS011;6733;51.044;3.746;2023-02-07T00:03:40;25.93;;;16.10;;
13327;SDS011;6733;51.044;3.746;2023-02-07T00:06:11;29.73;;;15.97;;
13327;SDS011;6733;51.044;3.746;2023-02-07T00:08:40;30.87;;;15.50;;
13327;SDS011;6733;51.044;3.746;2023-02-07T00:11:08;36.07;;;16.77;;
13327;SDS011;6733;51.044;3.746;2023-02-07T00:13:41;28.67;;;14.90;;
13327;SDS011;6733;51.044;3.746;2023-02-07T00:16:09;31.57;;;15.80;;
13327;SDS011;6733;51.044;3.746;2023-02-07T00:18:35;28.93;;;15.37;;
13327;SDS011;6733;51.044;3.746;2023-02-07T00:21:06;25.90;;;15.23;;
13327;SDS011;6733;51.044;3.746;2023-02-07T00:23:33;24.17;;;15.00;;
13327;SDS011;6733;51.044;3.746;2023-02-07T00:26:01;30.07;;;15.20;;
13327;SDS011;6733;51.044;3.746;2023-02-07T00:28:28;27.17;;;15.97;;
13327;SDS011;6733;51.044;3.746;2023-02-07T00:31:01;34.50;;;15.73;;
13327;SDS011;6733;51.044;3.746;2023-02-07T00:33:33;28.90;;;14.67;;
13327;SDS011;6733;51.044;3.746;2023-02-07T00:36:00;30.73;;;15.40;;
13327;SDS011;6733;51.044;3.746;2023-02-07T00:38:28;25.37;;;14.17;;
13327;SDS011;6733;51.044;3.746;2023-02-07T00:40:55;28.17;;;15.60;;
13327;SDS011;6733;51.044;3.746;2023-02-07T00:43:21;27.07;;;16.30;;
13327;SDS011;6733;51.044;3.746;2023-02-07T00:45:48;26.47;;;15.90;;
13327;SDS011;6733;51.044;3.746;2023-02-07T00:48:14;33.53;;;16.40;;
13327;SDS011;6733;51.044;3.746;2023-02-07T00:50:40;30.73;;;16.63;;
13327;SDS011;6733;51.044;3.746;2023-02-07T00:53:07;24.63;;;14.43;;
13327;SDS011;6733;51.044;3.746;2023-02-07T00:55:33;27.93;;;15.47;;
13327;SDS011;6733;51.044;3.746;2023-02-07T00:57:59;23.90;;;14.73;;
13327;SDS011;6733;51.044;3.746;2023-02-07T01:00:25;28.10;;;15.70;;
13327;SDS011;6733;51.044;3.746;2023-02-07T01:02:51;30.67;;;15.33;;
13327;SDS011;6733;51.044;3.746;2023-02-07T01:05:18;29.20;;;15.53;;
13327;SDS011;6733;51.044;3.746;2023-02-07T01:07:44;30.63;;;15.80;;
13327;SDS011;6733;51.044;3.746;2023-02-07T01:10:10;26.00;;;15.60;;
13327;SDS011;6733;51.044;3.746;2023-02-07T01:12:36;31.70;;;14.77;;
13327;SDS011;6733;51.044;3.746;2023-02-07T01:15:02;25.07;;;14.87;;
13327;SDS011;6733;51.044;3.746;2023-02-07T01:17:29;26.97;;;14.60;;
13327;SDS011;6733;51.044;3.746;2023-02-07T01:19:56;26.70;;;14.93;;
13327;SDS011;6733;51.044;3.746;2023-02-07T01:22:23;25.30;;;14.87;;
13327;SDS011;6733;51.044;3.746;2023-02-07T01:24:53;27.63;;;16.10;;
13327;SDS011;6733;51.044;3.746;2023-02-07T01:27:21;21.80;;;14.97;;
13327;SDS011;6733;51.044;3.746;2023-02-07T01:29:48;24.70;;;13.90;;
13327;SDS011;6733;51.044;3.746;2023-02-07T01:32:15;26.33;;;14.83;;
13327;SDS011;6733;51.044;3.746;2023-02-07T01:34:41;24.13;;;14.40;;
13327;SDS011;6733;51.044;3.746;2023-02-07T01:37:08;28.30;;;15.73;;
13327;SDS011;6733;51.044;3.746;2023-02-07T01:39:34;30.03;;;15.83;;
13327;SDS011;6733;51.044;3.746;2023-02-07T01:42:00;32.83;;;15.40;;
13327;SDS011;6733;51.044;3.746;2023-02-07T01:46:53;27.90;;;14.80;;
13327;SDS011;6733;51.044;3.746;2023-02-07T01:49:22;29.57;;;15.27;;
13327;SDS011;6733;51.044;3.746;2023-02-07T01:51:56;30.87;;;14.53;;
13327;SDS011;6733;51.044;3.746;2023-02-07T01:54:26;27.03;;;14.47;;
13327;SDS011;6733;51.044;3.746;2023-02-07T01:56:59;23.87;;;13.87;;
13327;SDS011;6733;51.044;3.746;2023-02-07T01:59:28;27.13;;;14.30;;
13327;SDS011;6733;51.044;3.746;2023-02-07T02:01:58;32.43;;;13.73;;
13327;SDS011;6733;51.044;3.746;2023-02-07T02:04:27;25.67;;;13.70;;
13327;SDS011;6733;51.044;3.746;2023-02-07T02:06:53;24.10;;;14.37;;
13327;SDS011;6733;51.044;3.746;2023-02-07T02:09:20;23.97;;;13.50;;
13327;SDS011;6733;51.044;3.746;2023-02-07T02:17:36;23.57;;;12.97;;
13327;SDS011;6733;51.044;3.746;2023-02-07T02:34:25;20.80;;;12.43;;
13327;SDS011;6733;51.044;3.746;2023-02-07T02:37:22;23.17;;;12.63;;
13327;SDS011;6733;51.044;3.746;2023-02-07T02:42:53;28.43;;;13.20;;
13327;SDS011;6733;51.044;3.746;2023-02-07T02:45:41;25.43;;;12.40;;
13327;SDS011;6733;51.044;3.746;2023-02-07T02:48:11;21.57;;;12.50;;
13327;SDS011;6733;51.044;3.746;2023-02-07T02:50:37;25.40;;;13.17;;
13327;SDS011;6733;51.044;3.746;2023-02-07T02:53:04;25.03;;;12.63;;
13327;SDS011;6733;51.044;3.746;2023-02-07T02:55:35;26.87;;;15.00;;
13327;SDS011;6733;51.044;3.746;2023-02-07T02:58:10;23.33;;;12.87;;
13327;SDS011;6733;51.044;3.746;2023-02-07T03:00:45;23.17;;;13.73;;
13327;SDS011;6733;51.044;3.746;2023-02-07T03:09:08;25.30;;;13.30;;
13327;SDS011;6733;51.044;3.746;2023-02-07T03:11:55;20.90;;;12.53;;
13327;SDS011;6733;51.044;3.746;2023-02-07T03:17:01;25.13;;;13.03;;
13327;SDS011;6733;51.044;3.746;2023-02-07T03:20:18;24.43;;;12.77;;
13327;SDS011;6733;51.044;3.746;2023-02-07T03:22:44;25.73;;;13.83;;
13327;SDS011;6733;51.044;3.746;2023-02-07T03:25:12;24.10;;;12.63;;
13327;SDS011;6733;51.044;3.746;2023-02-07T03:27:41;29.10;;;14.47;;
13327;SDS011;6733;51.044;3.746;2023-02-07T03:30:09;21.80;;;12.73;;
13327;SDS011;6733;51.044;3.746;2023-02-07T03:32:41;21.83;;;13.30;;
13327;SDS011;6733;51.044;3.746;2023-02-07T03:35:13;21.47;;;13.40;;
13327;SDS011;6733;51.044;3.746;2023-02-07T03:37:56;22.57;;;14.17;;
13327;SDS011;6733;51.044;3.746;2023-02-07T03:40:25;25.17;;;14.07;;
13327;SDS011;6733;51.044;3.746;2023-02-07T03:43:09;21.17;;;12.80;;
13327;SDS011;6733;51.044;3.746;2023-02-07T03:45:45;25.37;;;14.07;;
13327;SDS011;6733;51.044;3.746;2023-02-07T03:48:11;26.40;;;13.27;;
13327;SDS011;6733;51.044;3.746;2023-02-07T03:50:37;26.03;;;13.43;;
13327;SDS011;6733;51.044;3.746;2023-02-07T03:53:04;20.70;;;13.80;;
13327;SDS011;6733;51.044;3.746;2023-02-07T03:55:30;25.63;;;13.40;;
13327;SDS011;6733;51.044;3.746;2023-02-07T03:57:57;21.73;;;13.37;;
13327;SDS011;6733;51.044;3.746;2023-02-07T04:00:23;23.67;;;14.47;;
13327;SDS011;6733;51.044;3.746;2023-02-07T04:02:49;25.37;;;14.20;;
13327;SDS011;6733;51.044;3.746;2023-02-07T04:05:15;26.90;;;15.00;;
13327;SDS011;6733;51.044;3.746;2023-02-07T04:07:42;25.70;;;13.87;;
13327;SDS011;6733;51.044;3.746;2023-02-07T04:10:08;23.07;;;13.47;;
13327;SDS011;6733;51.044;3.746;2023-02-07T04:12:35;28.10;;;14.80;;
13327;SDS011;6733;51.044;3.746;2023-02-07T04:15:02;20.20;;;12.73;;
13327;SDS011;6733;51.044;3.746;2023-02-07T04:17:29;28.43;;;14.47;;
13327;SDS011;6733;51.044;3.746;2023-02-07T04:19:56;22.50;;;14.10;;
13327;SDS011;6733;51.044;3.746;2023-02-07T04:22:22;25.17;;;13.60;;
13327;SDS011;6733;51.044;3.746;2023-02-07T04:24:48;28.33;;;14.33;;
13327;SDS011;6733;51.044;3.746;2023-02-07T04:27:14;25.60;;;14.30;;
13327;SDS011;6733;51.044;3.746;2023-02-07T04:29:40;28.43;;;15.30;;
13327;SDS011;6733;51.044;3.746;2023-02-07T04:32:06;29.13;;;15.37;;
13327;SDS011;6733;51.044;3.746;2023-02-07T04:34:32;31.73;;;14.90;;
13327;SDS011;6733;51.044;3.746;2023-02-07T04:36:59;29.17;;;14.60;;
13327;SDS011;6733;51.044;3.746;2023-02-07T04:39:25;25.90;;;15.67;;
13327;SDS011;6733;51.044;3.746;2023-02-07T04:41:51;29.63;;;15.90;;
13327;SDS011;6733;51.044;3.746;2023-02-07T04:44:17;28.43;;;15.63;;
13327;SDS011;6733;51.044;3.746;2023-02-07T04:46:43;28.87;;;15.80;;
13327;SDS011;6733;51.044;3.746;2023-02-07T04:49:09;31.33;;;15.20;;
13327;SDS011;6733;51.044;3.746;2023-02-07T04:51:35;23.60;;;15.60;;
13327;SDS011;6733;51.044;3.746;2023-02-07T04:54:02;31.47;;;16.17;;
13327;SDS011;6733;51.044;3.746;2023-02-07T04:56:28;23.00;;;15.80;;
13327;SDS011;6733;51.044;3.746;2023-02-07T04:58:55;27.50;;;16.67;;
13327;SDS011;6733;51.044;3.746;2023-02-07T05:01:21;31.87;;;15.50;;
13327;SDS011;6733;51.044;3.746;2023-02-07T05:03:47;27.77;;;17.37;;
13327;SDS011;6733;51.044;3.746;2023-02-07T05:06:13;30.40;;;16.77;;
13327;SDS011;6733;51.044;3.746;2023-02-07T05:08:39;32.10;;;16.20;;
13327;SDS011;6733;51.044;3.746;2023-02-07T05:11:05;31.43;;;17.43;;
13327;SDS011;6733;51.044;3.746;2023-02-07T05:13:32;31.00;;;17.73;;
13327;SDS011;6733;51.044;3.746;2023-02-07T05:16:00;31.47;;;16.00;;
13327;SDS011;6733;51.044;3.746;2023-02-07T05:18:27;31.67;;;16.33;;
13327;SDS011;6733;51.044;3.746;2023-02-07T05:20:53;29.93;;;16.77;;
13327;SDS011;6733;51.044;3.746;2023-02-07T05:23:19;29.27;;;17.20;;
13327;SDS011;6733;51.044;3.746;2023-02-07T05:25:46;28.13;;;18.07;;
13327;SDS011;6733;51.044;3.746;2023-02-07T05:28:13;29.07;;;16.90;;
13327;SDS011;6733;51.044;3.746;2023-02-07T05:30:40;33.77;;;19.20;;
13327;SDS011;6733;51.044;3.746;2023-02-07T05:33:06;34.10;;;18.30;;
13327;SDS011;6733;51.044;3.746;2023-02-07T05:35:33;33.77;;;17.97;;
13327;SDS011;6733;51.044;3.746;2023-02-07T05:38:01;37.67;;;18.90;;
13327;SDS011;6733;51.044;3.746;2023-02-07T05:40:30;39.23;;;17.33;;
13327;SDS011;6733;51.044;3.746;2023-02-07T05:42:57;33.27;;;18.57;;
13327;SDS011;6733;51.044;3.746;2023-02-07T05:45:23;27.40;;;17.67;;
13327;SDS011;6733;51.044;3.746;2023-02-07T05:47:49;28.67;;;18.53;;
13327;SDS011;6733;51.044;3.746;2023-02-07T05:50:15;28.20;;;17.50;;
13327;SDS011;6733;51.044;3.746;2023-02-07T05:52:42;32.70;;;17.93;;
13327;SDS011;6733;51.044;3.746;2023-02-07T05:55:09;34.83;;;18.37;;
13327;SDS011;6733;51.044;3.746;2023-02-07T05:57:40;32.03;;;18.73;;
13327;SDS011;6733;51.044;3.746;2023-02-07T06:00:12;39.77;;;18.73;;
13327;SDS011;6733;51.044;3.746;2023-02-07T06:02:40;32.20;;;17.43;;
13327;SDS011;6733;51.044;3.746;2023-02-07T06:05:07;37.27;;;19.33;;
13327;SDS011;6733;51.044;3.746;2023-02-07T06:07:35;34.93;;;18.23;;
13327;SDS011;6733;51.044;3.746;2023-02-07T06:10:02;35.47;;;19.97;;
13327;SDS011;6733;51.044;3.746;2023-02-07T06:12:30;32.50;;;18.57;;
13327;SDS011;6733;51.044;3.746;2023-02-07T06:14:57;30.97;;;18.93;;
13327;SDS011;6733;51.044;3.746;2023-02-07T06:17:23;33.33;;;17.77;;
13327;SDS011;6733;51.044;3.746;2023-02-07T06:19:49;30.23;;;18.33;;
13327;SDS011;6733;51.044;3.746;2023-02-07T06:22:16;35.00;;;18.80;;
13327;SDS011;6733;51.044;3.746;2023-02-07T06:24:42;31.37;;;19.17;;
13327;SDS011;6733;51.044;3.746;2023-02-07T06:27:08;35.60;;;18.90;;
13327;SDS011;6733;51.044;3.746;2023-02-07T06:29:35;32.27;;;19.17;;
13327;SDS011;6733;51.044;3.746;2023-02-07T06:32:02;29.20;;;19.07;;
13327;SDS011;6733;51.044;3.746;2023-02-07T06:34:28;33.37;;;20.30;;
13327;SDS011;6733;51.044;3.746;2023-02-07T06:36:54;28.23;;;18.53;;
13327;SDS011;6733;51.044;3.746;2023-02-07T06:39:20;30.03;;;19.57;;
13327;SDS011;6733;51.044;3.746;2023-02-07T06:41:46;32.63;;;20.53;;
13327;SDS011;6733;51.044;3.746;2023-02-07T06:44:13;32.23;;;21.37;;
13327;SDS011;6733;51.044;3.746;2023-02-07T06:46:39;30.30;;;20.03;;
13327;SDS011;6733;51.044;3.746;2023-02-07T06:49:05;35.37;;;20.80;;
13327;SDS011;6733;51.044;3.746;2023-02-07T06:51:31;35.53;;;20.90;;
13327;SDS011;6733;51.044;3.746;2023-02-07T06:53:57;39.60;;;23.40;;
13327;SDS011;6733;51.044;3.746;2023-02-07T06:56:25;38.73;;;22.63;;
13327;SDS011;6733;51.044;3.746;2023-02-07T06:58:51;45.43;;;24.63;;
13327;SDS011;6733;51.044;3.746;2023-02-07T07:01:17;60.60;;;27.37;;
13327;SDS011;6733;51.044;3.746;2023-02-07T07:03:45;44.27;;;27.67;;
13327;SDS011;6733;51.044;3.746;2023-02-07T07:06:11;43.13;;;27.50;;
13327;SDS011;6733;51.044;3.746;2023-02-07T07:08:38;53.83;;;27.97;;
13327;SDS011;6733;51.044;3.746;2023-02-07T07:11:04;50.10;;;27.10;;
13327;SDS011;6733;51.044;3.746;2023-02-07T07:13:30;42.87;;;25.93;;
13327;SDS011;6733;51.044;3.746;2023-02-07T07:15:56;45.60;;;28.03;;
13327;SDS011;6733;51.044;3.746;2023-02-07T07:18:22;48.30;;;26.93;;
13327;SDS011;6733;51.044;3.746;2023-02-07T07:20:52;42.17;;;27.07;;
13327;SDS011;6733;51.044;3.746;2023-02-07T07:23:19;45.43;;;27.80;;
13327;SDS011;6733;51.044;3.746;2023-02-07T07:25:45;49.90;;;27.17;;
13327;SDS011;6733;51.044;3.746;2023-02-07T07:28:11;46.33;;;26.67;;
13327;SDS011;6733;51.044;3.746;2023-02-07T07:30:38;40.63;;;25.77;;
13327;SDS011;6733;51.044;3.746;2023-02-07T07:33:04;42.60;;;25.80;;
13327;SDS011;6733;51.044;3.746;2023-02-07T07:35:30;37.37;;;24.80;;
13327;SDS011;6733;51.044;3.746;2023-02-07T07:37:56;42.47;;;26.97;;
13327;SDS011;6733;51.044;3.746;2023-02-07T07:40:22;38.17;;;25.63;;
13327;SDS011;6733;51.044;3.746;2023-02-07T07:42:48;37.00;;;24.43;;
13327;SDS011;6733;51.044;3.746;2023-02-07T07:45:15;40.17;;;24.83;;
13327;SDS011;6733;51.044;3.746;2023-02-07T07:47:42;37.93;;;23.47;;
13327;SDS011;6733;51.044;3.746;2023-02-07T07:50:08;38.63;;;24.83;;
13327;SDS011;6733;51.044;3.746;2023-02-07T07:52:34;43.93;;;24.27;;
13327;SDS011;6733;51.044;3.746;2023-02-07T07:55:00;35.67;;;23.17;;
13327;SDS011;6733;51.044;3.746;2023-02-07T07:57:27;37.43;;;23.70;;
13327;SDS011;6733;51.044;3.746;2023-02-07T07:59:53;37.37;;;23.57;;
13327;SDS011;6733;51.044;3.746;2023-02-07T08:02:19;57.00;;;23.60;;
13327;SDS011;6733;51.044;3.746;2023-02-07T08:04:46;46.03;;;22.93;;
13327;SDS011;6733;51.044;3.746;2023-02-07T08:07:12;39.27;;;24.60;;
13327;SDS011;6733;51.044;3.746;2023-02-07T08:09:38;44.20;;;23.00;;
13327;SDS011;6733;51.044;3.746;2023-02-07T08:12:04;37.37;;;22.70;;
13327;SDS011;6733;51.044;3.746;2023-02-07T08:14:30;39.93;;;23.73;;
13327;SDS011;6733;51.044;3.746;2023-02-07T08:16:56;42.93;;;23.83;;
13327;SDS011;6733;51.044;3.746;2023-02-07T08:19:22;35.57;;;21.70;;
13327;SDS011;6733;51.044;3.746;2023-02-07T08:21:49;35.53;;;21.13;;
13327;SDS011;6733;51.044;3.746;2023-02-07T08:24:15;39.13;;;22.77;;
13327;SDS011;6733;51.044;3.746;2023-02-07T08:26:41;45.27;;;23.70;;
13327;SDS011;6733;51.044;3.746;2023-02-07T08:29:07;39.30;;;23.33;;
13327;SDS011;6733;51.044;3.746;2023-02-07T08:31:33;39.70;;;23.10;;
13327;SDS011;6733;51.044;3.746;2023-02-07T08:33:59;45.47;;;24.30;;
13327;SDS011;6733;51.044;3.746;2023-02-07T08:36:26;52.67;;;23.40;;
13327;SDS011;6733;51.044;3.746;2023-02-07T08:38:52;44.93;;;24.57;;
13327;SDS011;6733;51.044;3.746;2023-02-07T08:41:18;34.93;;;22.03;;
13327;SDS011;6733;51.044;3.746;2023-02-07T08:43:44;45.90;;;25.00;;
13327;SDS011;6733;51.044;3.746;2023-02-07T08:46:10;39.73;;;24.07;;
13327;SDS011;6733;51.044;3.746;2023-02-07T08:48:36;41.27;;;24.30;;
13327;SDS011;6733;51.044;3.746;2023-02-07T08:51:03;47.43;;;24.77;;
13327;SDS011;6733;51.044;3.746;2023-02-07T08:53:31;60.50;;;25.47;;
13327;SDS011;6733;51.044;3.746;2023-02-07T08:55:57;74.73;;;25.20;;
13327;SDS011;6733;51.044;3.746;2023-02-07T08:58:23;128.13;;;27.27;;
13327;SDS011;6733;51.044;3.746;2023-02-07T09:00:49;51.83;;;24.90;;
13327;SDS011;6733;51.044;3.746;2023-02-07T09:03:16;48.17;;;24.33;;
13327;SDS011;6733;51.044;3.746;2023-02-07T09:05:42;63.60;;;24.87;;
13327;SDS011;6733;51.044;3.746;2023-02-07T09:08:08;48.90;;;24.63;;
13327;SDS011;6733;51.044;3.746;2023-02-07T09:10:34;39.57;;;24.90;;
13327;SDS011;6733;51.044;3.746;2023-02-07T09:13:00;36.47;;;22.50;;
13327;SDS011;6733;51.044;3.746;2023-02-07T09:15:26;36.77;;;23.80;;
13327;SDS011;6733;51.044;3.746;2023-02-07T09:17:52;36.90;;;23.03;;
13327;SDS011;6733;51.044;3.746;2023-02-07T09:20:19;52.17;;;23.57;;
13327;SDS011;6733;51.044;3.746;2023-02-07T09:22:45;39.03;;;23.40;;
13327;SDS011;6733;51.044;3.746;2023-02-07T09:25:30;39.00;;;22.97;;
13327;SDS011;6733;51.044;3.746;2023-02-07T09:27:56;53.20;;;25.07;;
13327;SDS011;6733;51.044;3.746;2023-02-07T09:30:22;43.60;;;23.83;;
13327;SDS011;6733;51.044;3.746;2023-02-07T09:32:48;39.83;;;24.43;;
13327;SDS011;6733;51.044;3.746;2023-02-07T09:35:14;45.70;;;26.33;;
13327;SDS011;6733;51.044;3.746;2023-02-07T09:37:41;36.50;;;22.57;;
13327;SDS011;6733;51.044;3.746;2023-02-07T09:40:08;37.20;;;24.13;;
13327;SDS011;6733;51.044;3.746;2023-02-07T09:42:43;40.20;;;24.07;;
13327;SDS011;6733;51.044;3.746;2023-02-07T09:45:22;38.13;;;22.63;;
13327;SDS011;6733;51.044;3.746;2023-02-07T09:47:52;41.10;;;21.87;;
13327;SDS011;6733;51.044;3.746;2023-02-07T09:50:27;42.03;;;21.33;;
13327;SDS011;6733;51.044;3.746;2023-02-07T09:53:09;40.20;;;21.23;;
13327;SDS011;6733;51.044;3.746;2023-02-07T09:58:13;40.10;;;23.40;;
13327;SDS011;6733;51.044;3.746;2023-02-07T10:00:45;42.33;;;23.13;;
13327;SDS011;6733;51.044;3.746;2023-02-07T10:03:19;41.83;;;23.77;;
13327;SDS011;6733;51.044;3.746;2023-02-07T10:06:05;29.00;;;21.63;;
13327;SDS011;6733;51.044;3.746;2023-02-07T10:08:39;38.77;;;22.67;;
13327;SDS011;6733;51.044;3.746;2023-02-07T10:19:36;32.63;;;21.13;;
13327;SDS011;6733;51.044;3.746;2023-02-07T10:22:39;34.97;;;21.83;;
13327;SDS011;6733;51.044;3.746;2023-02-07T10:30:46;37.80;;;20.63;;
13327;SDS011;6733;51.044;3.746;2023-02-07T10:33:23;29.63;;;21.43;;
13327;SDS011;6733;51.044;3.746;2023-02-07T10:35:55;28.20;;;19.17;;
13327;SDS011;6733;51.044;3.746;2023-02-07T10:38:35;33.47;;;20.90;;
13327;SDS011;6733;51.044;3.746;2023-02-07T10:41:09;31.67;;;21.17;;
13327;SDS011;6733;51.044;3.746;2023-02-07T10:43:45;28.33;;;18.13;;
13327;SDS011;6733;51.044;3.746;2023-02-07T10:46:13;32.10;;;20.27;;
13327;SDS011;6733;51.044;3.746;2023-02-07T10:48:42;28.93;;;19.00;;
13327;SDS011;6733;51.044;3.746;2023-02-07T10:51:15;29.07;;;19.93;;
13327;SDS011;6733;51.044;3.746;2023-02-07T10:54:07;31.23;;;19.23;;
13327;SDS011;6733;51.044;3.746;2023-02-07T10:56:43;33.17;;;22.13;;
13327;SDS011;6733;51.044;3.746;2023-02-07T10:59:29;27.87;;;20.07;;
13327;SDS011;6733;51.044;3.746;2023-02-07T11:02:33;34.83;;;21.80;;
13327;SDS011;6733;51.044;3.746;2023-02-07T11:04:50;30.33;;;20.07;;
13327;SDS011;6733;51.044;3.746;2023-02-07T11:07:16;31.57;;;19.20;;
13327;SDS011;6733;51.044;3.746;2023-02-07T11:09:42;28.87;;;19.77;;
13327;SDS011;6733;51.044;3.746;2023-02-07T11:12:12;28.87;;;19.67;;
13327;SDS011;6733;51.044;3.746;2023-02-07T11:14:41;29.40;;;19.23;;
13327;SDS011;6733;51.044;3.746;2023-02-07T11:17:29;29.87;;;19.43;;
13327;SDS011;6733;51.044;3.746;2023-02-07T11:19:58;26.93;;;18.50;;
13327;SDS011;6733;51.044;3.746;2023-02-07T11:22:29;30.13;;;20.13;;
13327;SDS011;6733;51.044;3.746;2023-02-07T11:25:00;26.77;;;19.70;;
13327;SDS011;6733;51.044;3.746;2023-02-07T11:27:32;26.10;;;18.50;;
13327;SDS011;6733;51.044;3.746;2023-02-07T11:30:07;29.37;;;17.90;;
13327;SDS011;6733;51.044;3.746;2023-02-07T11:32:39;25.43;;;17.83;;
13327;SDS011;6733;51.044;3.746;2023-02-07T11:35:09;26.17;;;18.67;;
13327;SDS011;6733;51.044;3.746;2023-02-07T11:37:57;30.20;;;20.83;;
13327;SDS011;6733;51.044;3.746;2023-02-07T11:40:26;25.17;;;17.83;;
13327;SDS011;6733;51.044;3.746;2023-02-07T11:45:33;30.80;;;18.50;;
13327;SDS011;6733;51.044;3.746;2023-02-07T11:48:02;25.43;;;19.13;;
13327;SDS011;6733;51.044;3.746;2023-02-07T11:50:39;23.90;;;17.97;;
13327;SDS011;6733;51.044;3.746;2023-02-07T11:53:18;27.10;;;17.10;;
13327;SDS011;6733;51.044;3.746;2023-02-07T11:55:49;24.67;;;17.63;;
13327;SDS011;6733;51.044;3.746;2023-02-07T11:58:30;26.47;;;17.80;;
13327;SDS011;6733;51.044;3.746;2023-02-07T12:01:03;26.00;;;17.83;;
13327;SDS011;6733;51.044;3.746;2023-02-07T12:03:41;23.87;;;16.80;;
13327;SDS011;6733;51.044;3.746;2023-02-07T12:06:15;22.20;;;16.33;;
13327;SDS011;6733;51.044;3.746;2023-02-07T12:08:45;25.17;;;16.03;;
13327;SDS011;6733;51.044;3.746;2023-02-07T12:13:49;26.90;;;16.90;;
13327;SDS011;6733;51.044;3.746;2023-02-07T12:16:36;22.50;;;16.73;;
13327;SDS011;6733;51.044;3.746;2023-02-07T12:19:21;27.63;;;18.70;;
13327;SDS011;6733;51.044;3.746;2023-02-07T12:24:39;30.30;;;18.97;;
13327;SDS011;6733;51.044;3.746;2023-02-07T12:29:48;22.83;;;16.57;;
13327;SDS011;6733;51.044;3.746;2023-02-07T12:35:32;25.00;;;17.23;;
13327;SDS011;6733;51.044;3.746;2023-02-07T12:40:45;29.40;;;17.30;;
13327;SDS011;6733;51.044;3.746;2023-02-07T12:51:16;32.50;;;19.53;;
13327;SDS011;6733;51.044;3.746;2023-02-07T13:10:48;25.57;;;18.03;;
13327;SDS011;6733;51.044;3.746;2023-02-07T13:13:20;31.83;;;18.77;;
13327;SDS011;6733;51.044;3.746;2023-02-07T13:15:57;25.60;;;17.67;;
13327;SDS011;6733;51.044;3.746;2023-02-07T13:18:43;27.50;;;15.37;;
13327;SDS011;6733;51.044;3.746;2023-02-07T13:21:30;27.40;;;16.80;;
13327;SDS011;6733;51.044;3.746;2023-02-07T13:24:12;24.23;;;15.00;;
13327;SDS011;6733;51.044;3.746;2023-02-07T13:26:43;21.83;;;13.63;;
13327;SDS011;6733;51.044;3.746;2023-02-07T13:29:15;16.50;;;12.97;;
13327;SDS011;6733;51.044;3.746;2023-02-07T13:31:46;19.40;;;12.07;;
13327;SDS011;6733;51.044;3.746;2023-02-07T13:34:18;15.73;;;11.67;;
13327;SDS011;6733;51.044;3.746;2023-02-07T13:36:49;17.13;;;12.17;;
13327;SDS011;6733;51.044;3.746;2023-02-07T13:47:44;16.73;;;11.30;;
13327;SDS011;6733;51.044;3.746;2023-02-07T13:53:00;17.37;;;12.53;;
13327;SDS011;6733;51.044;3.746;2023-02-07T13:55:49;16.33;;;11.53;;
13327;SDS011;6733;51.044;3.746;2023-02-07T14:01:20;17.50;;;12.37;;
13327;SDS011;6733;51.044;3.746;2023-02-07T14:04:01;23.03;;;13.50;;
13327;SDS011;6733;51.044;3.746;2023-02-07T14:06:36;17.60;;;13.17;;
13327;SDS011;6733;51.044;3.746;2023-02-07T14:11:57;18.43;;;12.37;;
13327;SDS011;6733;51.044;3.746;2023-02-07T14:14:42;23.07;;;13.60;;
13327;SDS011;6733;51.044;3.746;2023-02-07T14:17:13;18.37;;;12.97;;
13327;SDS011;6733;51.044;3.746;2023-02-07T14:19:52;19.23;;;13.17;;
13327;SDS011;6733;51.044;3.746;2023-02-07T14:22:20;20.57;;;12.43;;
13327;SDS011;6733;51.044;3.746;2023-02-07T14:25:11;19.87;;;12.83;;
13327;SDS011;6733;51.044;3.746;2023-02-07T14:28:06;18.23;;;11.77;;
13327;SDS011;6733;51.044;3.746;2023-02-07T14:33:18;19.60;;;12.57;;
13327;SDS011;6733;51.044;3.746;2023-02-07T14:36:03;17.97;;;11.60;;
13327;SDS011;6733;51.044;3.746;2023-02-07T14:41:10;18.97;;;13.33;;
13327;SDS011;6733;51.044;3.746;2023-02-07T14:43:43;18.43;;;13.10;;
13327;SDS011;6733;51.044;3.746;2023-02-07T14:46:29;18.60;;;12.67;;
13327;SDS011;6733;51.044;3.746;2023-02-07T14:54:54;20.25;;;12.65;;
13327;SDS011;6733;51.044;3.746;2023-02-07T15:03:18;22.67;;;15.67;;
13327;SDS011;6733;51.044;3.746;2023-02-07T15:08:20;21.20;;;15.40;;
13327;SDS011;6733;51.044;3.746;2023-02-07T15:15:58;25.80;;;17.90;;
13327;SDS011;6733;51.044;3.746;2023-02-07T15:18:26;31.80;;;19.90;;
13327;SDS011;6733;51.044;3.746;2023-02-07T15:20:55;24.77;;;18.93;;
13327;SDS011;6733;51.044;3.746;2023-02-07T15:23:23;29.43;;;19.70;;
13327;SDS011;6733;51.044;3.746;2023-02-07T15:25:51;29.43;;;19.30;;
13327;SDS011;6733;51.044;3.746;2023-02-07T15:30:55;25.80;;;17.90;;
13327;SDS011;6733;51.044;3.746;2023-02-07T15:33:31;28.23;;;16.50;;
13327;SDS011;6733;51.044;3.746;2023-02-07T15:36:39;23.33;;;16.03;;
13327;SDS011;6733;51.044;3.746;2023-02-07T15:39:15;27.53;;;16.13;;
13327;SDS011;6733;51.044;3.746;2023-02-07T15:41:44;23.30;;;16.60;;
13327;SDS011;6733;51.044;3.746;2023-02-07T15:44:30;27.00;;;18.70;;
13327;SDS011;6733;51.044;3.746;2023-02-07T15:47:00;31.77;;;20.13;;
13327;SDS011;6733;51.044;3.746;2023-02-07T15:49:34;29.93;;;19.90;;
13327;SDS011;6733;51.044;3.746;2023-02-07T15:54:45;26.80;;;17.53;;
13327;SDS011;6733;51.044;3.746;2023-02-07T15:57:31;24.40;;;17.40;;
13327;SDS011;6733;51.044;3.746;2023-02-07T16:00:00;31.90;;;18.37;;
13327;SDS011;6733;51.044;3.746;2023-02-07T16:02:55;27.73;;;17.90;;
13327;SDS011;6733;51.044;3.746;2023-02-07T16:05:29;27.00;;;17.33;;
13327;SDS011;6733;51.044;3.746;2023-02-07T16:07:58;24.20;;;17.07;;
13327;SDS011;6733;51.044;3.746;2023-02-07T16:18:36;31.07;;;19.27;;
13327;SDS011;6733;51.044;3.746;2023-02-07T16:21:20;26.37;;;18.10;;
13327;SDS011;6733;51.044;3.746;2023-02-07T16:23:48;34.83;;;18.57;;
13327;SDS011;6733;51.044;3.746;2023-02-07T16:26:17;32.87;;;19.73;;
13327;SDS011;6733;51.044;3.746;2023-02-07T16:28:48;33.70;;;19.77;;
13327;SDS011;6733;51.044;3.746;2023-02-07T16:31:14;38.13;;;21.00;;
13327;SDS011;6733;51.044;3.746;2023-02-07T16:33:40;33.70;;;22.20;;
13327;SDS011;6733;51.044;3.746;2023-02-07T16:36:10;39.37;;;25.87;;
13327;SDS011;6733;51.044;3.746;2023-02-07T16:38:40;32.50;;;22.60;;
13327;SDS011;6733;51.044;3.746;2023-02-07T16:41:08;35.93;;;22.47;;
13327;SDS011;6733;51.044;3.746;2023-02-07T16:43:49;33.93;;;21.63;;
13327;SDS011;6733;51.044;3.746;2023-02-07T16:46:15;36.67;;;22.40;;
13327;SDS011;6733;51.044;3.746;2023-02-07T16:48:41;40.17;;;24.80;;
13327;SDS011;6733;51.044;3.746;2023-02-07T16:51:08;40.33;;;24.60;;
13327;SDS011;6733;51.044;3.746;2023-02-07T16:53:34;37.77;;;25.63;;
13327;SDS011;6733;51.044;3.746;2023-02-07T16:56:00;39.87;;;25.33;;
13327;SDS011;6733;51.044;3.746;2023-02-07T16:58:28;36.90;;;23.80;;
13327;SDS011;6733;51.044;3.746;2023-02-07T17:00:55;44.63;;;24.37;;
13327;SDS011;6733;51.044;3.746;2023-02-07T17:03:22;37.67;;;23.90;;
13327;SDS011;6733;51.044;3.746;2023-02-07T17:05:49;38.27;;;23.43;;
13327;SDS011;6733;51.044;3.746;2023-02-07T17:08:16;45.07;;;23.50;;
13327;SDS011;6733;51.044;3.746;2023-02-07T17:10:51;40.03;;;22.53;;
13327;SDS011;6733;51.044;3.746;2023-02-07T17:13:21;36.67;;;22.83;;
13327;SDS011;6733;51.044;3.746;2023-02-07T17:15:47;40.13;;;24.87;;
13327;SDS011;6733;51.044;3.746;2023-02-07T17:18:13;37.87;;;23.13;;